Terminal Aerodrome Forecast
Issued by NWS Memphis, TN

Home | Current Version | Previous Version | Text Only | Print | Product List | Glossary On
Versions: 1 2 3 4 5 6 7 8 9 10 11 12 13 14 15 16 17 18 19 20 21 22 23 24 25
000
FTUS44 KMEG 020200 AAA
TAFMEM
TAF AMD
KMEM 020253Z 0203/0224 15007KT P6SM SKC
     FM020900 17007KT P6SM BKN040
     FM021300 18010KT P6SM VCSH SCT020 BKN040
      TEMPO 0213/0217 BKN020 OVC040
     FM021700 19012KT P6SM VCTS SCT035CB BKN050=

USA.gov is the U.S. government's official web portal to all federal, state and local government web resources and services.